Time;durP1;ratioP1;P1;durP2;ratioP2;P2;SDS_P1;SDS_P2;PMS_P1;PMS_P2;Temp;Humidity;BMP_temperature;BMP_pressure;BME280_temperature;BME280_humidity;BME280_pressure;Samples;Min_cycle;Max_cycle;Signal;HPM_P1;HPM_P2
2023/09/15 00:01:41;;;;;;;43.85;40.83;;;10.30;99.90;;;;;;6214257;23;20019;-83
2023/09/15 00:04:09;;;;;;;53.95;50.33;;;11.00;99.90;;;;;;6216342;23;20043;-82
2023/09/15 00:06:36;;;;;;;47.63;44.60;;;11.00;99.90;;;;;;6241584;23;20028;-83
2023/09/15 00:09:15;;;;;;;46.35;43.33;;;10.50;99.90;;;;;;6240876;23;20378;-83
2023/09/15 00:11:42;;;;;;;54.53;50.92;;;11.50;99.90;;;;;;6267218;22;20048;-83
2023/09/15 00:14:12;;;;;;;43.10;40.25;;;11.00;99.90;;;;;;6215255;23;20023;-82
2023/09/15 00:16:39;;;;;;;54.92;51.15;;;11.00;99.90;;;;;;6241586;23;20012;-83
2023/09/15 00:19:06;;;;;;;53.92;50.53;;;11.00;99.90;;;;;;6241267;23;20054;-83
2023/09/15 00:21:33;;;;;;;53.92;50.60;;;11.50;99.90;;;;;;6242805;22;20431;-83
2023/09/15 00:24:02;;;;;;;50.53;47.05;;;10.90;99.90;;;;;;6241261;23;20012;-83
2023/09/15 00:26:31;;;;;;;57.60;53.53;;;10.90;99.90;;;;;;6215796;23;20047;-82
2023/09/15 00:28:57;;;;;;;60.38;56.35;;;10.90;99.90;;;;;;6240431;23;20070;-83
2023/09/15 00:31:23;;;;;;;54.33;50.53;;;10.90;99.90;;;;;;6241495;23;20012;-82
2023/09/15 00:33:49;;;;;;;59.67;55.78;;;10.90;99.90;;;;;;6266680;22;20047;-83
2023/09/15 00:36:15;;;;;;;58.45;54.50;;;10.90;99.90;;;;;;6267024;22;20425;-82
2023/09/15 00:38:41;;;;;;;54.60;50.83;;;10.90;99.90;;;;;;6241443;23;20012;-82
2023/09/15 00:41:07;;;;;;;60.28;56.25;;;11.00;99.90;;;;;;6241088;23;20090;-83
2023/09/15 00:43:32;;;;;;;58.13;54.00;;;10.90;99.90;;;;;;6240504;22;20016;-82
2023/09/15 00:46:02;;;;;;;58.05;54.33;;;10.90;99.90;;;;;;6240835;23;20027;-82
2023/09/15 00:48:28;;;;;;;61.28;57.33;;;10.90;99.90;;;;;;6215485;23;20228;-83
2023/09/15 00:50:55;;;;;;;59.58;55.30;;;11.40;99.90;;;;;;6241032;23;20044;-82
2023/09/15 00:53:21;;;;;;;64.10;59.83;;;10.80;99.90;;;;;;6266168;22;20016;-83
2023/09/15 00:55:51;;;;;;;58.08;54.35;;;10.80;99.90;;;;;;6266765;22;20046;-82
2023/09/15 00:58:20;;;;;;;53.70;50.33;;;10.80;99.90;;;;;;6241188;23;20043;-82
2023/09/15 01:00:47;;;;;;;62.05;57.45;;;10.70;99.90;;;;;;6266503;22;20014;-83
2023/09/15 01:03:17;;;;;;;60.30;56.08;;;10.80;99.90;;;;;;6266682;22;20035;-83
2023/09/15 01:05:45;;;;;;;58.80;55.30;;;10.70;99.90;;;;;;6265979;22;20024;-82
2023/09/15 01:08:12;;;;;;;62.13;58.17;;;10.70;99.90;;;;;;6214290;23;20024;-83
2023/09/15 01:10:38;;;;;;;64.57;60.50;;;10.70;99.90;;;;;;6214697;23;20015;-82
2023/09/15 01:13:07;;;;;;;58.38;54.40;;;10.40;99.90;;;;;;6240657;23;20039;-82
2023/09/15 01:15:36;;;;;;;55.05;51.45;;;10.60;99.90;;;;;;6240756;23;20431;-83
2023/09/15 01:18:30;;;;;;;60.38;56.13;;;10.60;99.90;;;;;;6240495;23;20095;-82
2023/09/15 01:21:21;;;;;;;70.25;66.00;;;10.60;99.90;;;;;;6240859;23;20437;-82
2023/09/15 01:24:00;;;;;;;53.85;50.15;;;10.50;99.90;;;;;;6215474;23;20020;-83
2023/09/15 01:27:03;;;;;;;60.45;56.58;;;10.50;99.90;;;;;;6240035;23;20064;-83
2023/09/15 01:29:37;;;;;;;58.40;54.72;;;10.50;99.90;;;;;;6240170;23;20062;-83
2023/09/15 01:32:09;;;;;;;52.92;49.65;;;10.50;99.90;;;;;;6215015;23;20038;-82
2023/09/15 01:34:36;;;;;;;61.15;57.25;;;10.40;99.90;;;;;;6240663;23;20008;-82
2023/09/15 01:37:02;;;;;;;60.38;56.38;;;10.50;99.90;;;;;;6214949;23;20020;-82
2023/09/15 01:39:31;;;;;;;55.17;51.70;;;10.40;99.90;;;;;;6239748;23;20432;-82
2023/09/15 01:42:00;;;;;;;67.25;62.72;;;10.40;99.90;;;;;;6215374;23;20431;-82
2023/09/15 01:44:27;;;;;;;58.55;54.53;;;10.30;99.90;;;;;;6240216;23;20347;-82
2023/09/15 01:46:53;;;;;;;64.05;60.00;;;10.50;99.90;;;;;;6240492;23;20054;-82
2023/09/15 01:49:20;;;;;;;70.75;66.40;;;10.30;99.90;;;;;;6215198;23;20008;-83
2023/09/15 01:51:49;;;;;;;63.53;59.13;;;10.30;99.90;;;;;;6240361;23;20035;-83
2023/09/15 01:54:15;;;;;;;58.78;54.88;;;10.90;99.90;;;;;;6214720;23;20031;-83
2023/09/15 01:56:41;;;;;;;68.80;64.63;;;10.20;99.90;;;;;;6215421;23;20016;-82
2023/09/15 01:59:07;;;;;;;70.43;65.90;;;10.30;99.90;;;;;;6215418;23;20350;-83
2023/09/15 02:01:35;;;;;;;59.70;55.80;;;10.20;99.90;;;;;;6240060;23;20012;-82
2023/09/15 02:04:01;;;;;;;63.92;59.83;;;10.10;99.90;;;;;;6239628;23;20043;-82
2023/09/15 02:06:27;;;;;;;68.40;64.25;;;10.10;99.90;;;;;;6240679;23;20020;-83
2023/09/15 02:08:52;;;;;;;64.32;60.33;;;10.10;99.90;;;;;;6240947;23;20012;-83
2023/09/15 02:11:18;;;;;;;60.90;57.15;;;10.10;99.90;;;;;;6240237;23;20383;-83
2023/09/15 02:13:44;;;;;;;69.57;65.00;;;10.00;99.90;;;;;;6241345;23;20338;-82
2023/09/15 02:16:11;;;;;;;69.50;65.45;;;10.00;99.90;;;;;;6214399;23;20427;-83
2023/09/15 02:18:40;;;;;;;63.03;59.25;;;10.00;99.90;;;;;;6213715;23;20012;-82
2023/09/15 02:21:09;;;;;;;65.80;61.53;;;10.00;99.90;;;;;;6240229;23;20079;-83
2023/09/15 02:23:34;;;;;;;69.97;65.28;;;9.90;99.90;;;;;;6237946;23;20094;-82
2023/09/15 02:26:07;;;;;;;67.13;62.97;;;9.90;99.90;;;;;;6241364;23;20068;-83
2023/09/15 02:28:33;;;;;;;58.30;54.58;;;9.80;99.90;;;;;;6239593;23;20461;-83
2023/09/15 02:31:05;;;;;;;73.72;69.13;;;9.90;99.90;;;;;;6214984;23;20016;-83
2023/09/15 02:33:32;;;;;;;63.30;59.40;;;9.90;99.90;;;;;;6239776;23;20020;-83
2023/09/15 02:35:58;;;;;;;63.40;59.35;;;9.90;99.90;;;;;;6214672;23;20103;-83
2023/09/15 02:38:24;;;;;;;70.80;66.38;;;9.60;99.90;;;;;;6238830;23;20063;-83
2023/09/15 02:40:50;;;;;;;57.03;53.10;;;9.80;99.90;;;;;;6214632;23;20099;-83
2023/09/15 02:43:15;;;;;;;66.68;62.60;;;9.80;99.90;;;;;;6239604;23;20012;-83
2023/09/15 02:45:41;;;;;;;69.85;65.60;;;10.50;99.90;;;;;;6214568;23;20167;-83
2023/09/15 02:48:07;;;;;;;74.78;69.88;;;9.80;99.90;;;;;;6214278;23;20031;-83
2023/09/15 02:50:32;;;;;;;62.17;57.95;;;10.70;99.90;;;;;;6239664;23;20008;-83
2023/09/15 02:53:01;;;;;;;63.58;59.28;;;9.70;99.90;;;;;;6238342;23;20043;-83
2023/09/15 02:55:30;;;;;;;60.40;56.42;;;9.70;99.90;;;;;;6214103;23;20362;-82
2023/09/15 02:57:56;;;;;;;66.85;62.50;;;10.60;99.90;;;;;;6239017;23;20016;-83
2023/09/15 03:00:22;;;;;;;76.03;71.32;;;10.10;99.90;;;;;;6239119;23;20019;-82
2023/09/15 03:02:51;;;;;;;58.30;54.63;;;9.70;99.90;;;;;;6239366;23;20023;-83
2023/09/15 03:05:20;;;;;;;68.68;64.47;;;10.20;99.90;;;;;;6213770;23;20083;-82
2023/09/15 03:07:48;;;;;;;72.65;68.25;;;9.60;99.90;;;;;;6213412;23;20020;-83
2023/09/15 03:10:15;;;;;;;62.53;58.33;;;9.60;99.90;;;;;;6238532;23;20016;-83
2023/09/15 03:12:40;;;;;;;78.50;73.20;;;9.60;99.90;;;;;;6239161;23;20034;-83
2023/09/15 03:15:08;;;;;;;76.03;71.25;;;9.60;99.90;;;;;;6239258;23;20452;-82
2023/09/15 03:17:35;;;;;;;72.38;67.60;;;9.60;99.90;;;;;;6238722;23;20008;-83
2023/09/15 03:20:11;;;;;;;59.58;55.83;;;9.50;99.90;;;;;;6239078;23;20024;-83
2023/09/15 03:22:36;;;;;;;71.72;67.22;;;10.30;99.90;;;;;;6213101;23;20020;-82
2023/09/15 03:25:03;;;;;;;72.80;68.20;;;10.50;99.90;;;;;;6212454;23;20027;-82
2023/09/15 03:27:32;;;;;;;63.20;58.95;;;9.50;99.90;;;;;;6239729;23;20362;-83
2023/09/15 03:30:06;;;;;;;52.45;49.13;;;9.50;99.90;;;;;;6238817;23;20092;-82
2023/09/15 03:32:32;;;;;;;;;;;9.50;99.90;;;;;;6239261;23;20042;-83
2023/09/15 03:35:00;;;;;;;55.88;52.30;;;9.40;99.90;;;;;;6239390;23;20103;-82
2023/09/15 03:37:26;;;;;;;74.38;69.32;;;10.00;99.90;;;;;;6212480;23;20027;-83
2023/09/15 03:39:52;;;;;;;72.00;67.63;;;10.30;99.90;;;;;;6213512;23;20016;-83
2023/09/15 03:42:18;;;;;;;51.75;48.30;;;9.40;99.90;;;;;;6213375;23;20023;-83
2023/09/15 03:44:43;;;;;;;76.63;71.95;;;9.40;99.90;;;;;;6238800;23;20012;-82
2023/09/15 03:47:09;;;;;;;73.35;68.57;;;9.40;99.90;;;;;;6238830;23;20019;-83
2023/09/15 03:49:35;;;;;;;68.88;64.47;;;9.30;99.90;;;;;;6239107;23;20235;-83
2023/09/15 03:52:01;;;;;;;66.22;61.65;;;9.30;99.90;;;;;;6213206;23;20018;-83
2023/09/15 03:54:29;;;;;;;63.72;59.72;;;9.80;99.90;;;;;;6213749;23;20066;-83
2023/09/15 03:56:55;;;;;;;51.20;47.72;;;9.50;99.90;;;;;;6214021;23;20031;-82
2023/09/15 03:59:21;;;;;;;70.18;65.38;;;9.30;99.90;;;;;;6241189;23;20008;-82
2023/09/15 04:01:47;;;;;;;64.72;60.40;;;9.30;99.90;;;;;;6214597;23;20012;-82
2023/09/15 04:04:13;;;;;;;60.97;56.95;;;9.30;99.90;;;;;;6239391;23;20074;-83
2023/09/15 04:06:43;;;;;;;58.22;53.88;;;9.30;99.90;;;;;;6213508;23;20467;-83
2023/09/15 04:09:12;;;;;;;73.80;69.00;;;9.30;99.90;;;;;;6238791;23;20043;-82
2023/09/15 04:11:39;;;;;;;58.58;54.35;;;9.20;99.90;;;;;;6238834;23;20012;-83
2023/09/15 04:14:05;;;;;;;61.15;56.95;;;10.00;99.90;;;;;;6213757;23;20019;-83
2023/09/15 04:16:32;;;;;;;62.03;58.08;;;9.00;99.90;;;;;;6264489;22;20017;-83
2023/09/15 04:19:06;;;;;;;57.78;53.92;;;9.20;99.90;;;;;;6238517;23;20012;-82
2023/09/15 04:21:33;;;;;;;73.13;68.30;;;9.10;99.90;;;;;;6238930;23;20032;-83
2023/09/15 04:24:08;;;;;;;59.28;55.28;;;9.20;99.90;;;;;;6215477;23;20605;-82
2023/09/15 04:26:37;;;;;;;56.42;51.83;;;9.10;99.90;;;;;;6241173;22;20040;-83
2023/09/15 04:29:03;;;;;;;74.25;69.15;;;9.10;99.90;;;;;;6239072;23;20016;-83
2023/09/15 04:31:30;;;;;;;65.00;60.45;;;9.60;99.90;;;;;;6213869;23;20198;-83
2023/09/15 04:33:55;;;;;;;73.88;69.30;;;9.10;99.90;;;;;;6238216;23;20078;-83
2023/09/15 04:36:21;;;;;;;57.65;53.72;;;10.10;99.90;;;;;;6239383;23;20012;-83
2023/09/15 04:38:47;;;;;;;63.78;59.67;;;9.10;99.90;;;;;;6239263;23;20439;-83
2023/09/15 04:41:12;;;;;;;57.67;53.10;;;9.10;99.90;;;;;;6238766;23;20031;-82
2023/09/15 04:43:38;;;;;;;57.08;52.88;;;9.10;99.90;;;;;;6213263;23;20098;-83
2023/09/15 04:46:07;;;;;;;55.58;51.50;;;9.10;99.90;;;;;;6238997;23;20016;-83
2023/09/15 04:48:33;;;;;;;59.63;55.33;;;9.10;99.90;;;;;;6213000;23;20024;-83
2023/09/15 04:51:02;;;;;;;59.42;55.88;;;8.50;99.90;;;;;;6240976;23;20034;-83
2023/09/15 04:53:28;;;;;;;65.10;60.72;;;8.50;99.90;;;;;;6215416;23;20019;-83
2023/09/15 04:55:57;;;;;;;50.88;47.22;;;9.10;99.90;;;;;;6240350;23;20447;-83
2023/09/15 04:58:26;;;;;;;64.85;60.83;;;8.60;99.90;;;;;;6215853;23;20016;-83
2023/09/15 05:01:00;;;;;;;50.25;46.63;;;9.90;99.90;;;;;;6240445;23;20396;-83
2023/09/15 05:03:27;;;;;;;70.65;65.80;;;9.00;99.90;;;;;;6214801;23;20015;-83
2023/09/15 05:05:52;;;;;;;73.18;68.75;;;8.80;99.90;;;;;;6240478;23;20020;-83
2023/09/15 05:08:18;;;;;;;57.08;53.25;;;9.10;99.90;;;;;;6240444;23;20474;-83
2023/09/15 05:10:48;;;;;;;70.07;65.55;;;9.00;99.90;;;;;;6240383;23;20015;-83
2023/09/15 05:13:14;;;;;;;49.92;46.17;;;9.30;99.90;;;;;;6240513;23;20012;-82
2023/09/15 05:15:40;;;;;;;69.95;65.28;;;10.00;99.90;;;;;;6240476;23;20459;-82
2023/09/15 05:18:08;;;;;;;48.83;44.70;;;9.00;99.90;;;;;;6239562;22;20012;-82
2023/09/15 05:20:40;;;;;;;67.97;63.45;;;9.10;99.90;;;;;;6240092;23;20015;-82
2023/09/15 05:23:06;;;;;;;46.00;42.60;;;9.10;99.90;;;;;;6240206;23;20016;-82
2023/09/15 05:25:32;;;;;;;63.28;59.15;;;9.10;99.90;;;;;;6239837;23;20018;-83
2023/09/15 05:28:01;;;;;;;54.80;50.67;;;9.10;99.90;;;;;;6240195;23;20016;-83
2023/09/15 05:30:31;;;;;;;52.63;48.60;;;8.80;99.90;;;;;;6214924;23;20015;-82
2023/09/15 05:32:57;;;;;;;48.15;44.20;;;9.10;99.90;;;;;;6239812;23;20171;-82
2023/09/15 05:35:22;;;;;;;62.72;58.42;;;9.10;99.90;;;;;;6217964;23;20335;-83
2023/09/15 05:37:49;;;;;;;46.90;43.45;;;9.10;99.90;;;;;;6215840;23;20012;-83
2023/09/15 05:40:14;;;;;;;48.42;44.85;;;9.10;99.90;;;;;;6215846;23;20016;-83
2023/09/15 05:42:40;;;;;;;63.25;58.85;;;9.20;99.90;;;;;;6241605;23;20099;-83
2023/09/15 05:45:07;;;;;;;45.75;42.47;;;9.20;99.90;;;;;;6215650;23;20012;-83
2023/09/15 05:47:33;;;;;;;72.30;67.60;;;9.20;99.90;;;;;;6241287;23;20016;-83
2023/09/15 05:50:02;;;;;;;66.72;62.28;;;9.20;99.90;;;;;;6215499;23;20023;-82
2023/09/15 05:52:30;;;;;;;50.90;46.78;;;9.10;99.90;;;;;;6240377;23;20013;-83
2023/09/15 05:54:56;;;;;;;79.60;74.20;;;9.30;99.90;;;;;;6240350;23;20075;-83
2023/09/15 05:57:22;;;;;;;67.78;63.40;;;9.30;99.90;;;;;;6215082;23;20012;-83
2023/09/15 05:59:48;;;;;;;77.45;72.22;;;9.30;99.90;;;;;;6240362;23;20016;-83
2023/09/15 06:02:14;;;;;;;39.80;36.33;;;9.40;99.90;;;;;;6240571;23;20458;-83
2023/09/15 06:04:42;;;;;;;74.40;69.03;;;9.40;99.90;;;;;;6241609;23;20031;-83
2023/09/15 06:07:08;;;;;;;72.72;67.65;;;9.40;99.90;;;;;;6240585;23;20074;-82
2023/09/15 06:09:40;;;;;;;63.25;58.80;;;9.50;99.90;;;;;;6240525;23;20023;-83
2023/09/15 06:12:05;;;;;;;78.15;73.07;;;9.60;99.90;;;;;;6215830;23;20094;-83
2023/09/15 06:14:35;;;;;;;58.70;54.45;;;9.50;99.90;;;;;;6216213;23;20375;-83
2023/09/15 06:17:02;;;;;;;56.03;52.13;;;9.20;99.90;;;;;;6214892;23;20048;-83
2023/09/15 06:19:31;;;;;;;60.20;55.85;;;9.70;99.90;;;;;;6216392;23;20012;-84
2023/09/15 06:21:57;;;;;;;65.97;61.60;;;9.70;99.90;;;;;;6216968;23;20035;-83
2023/09/15 06:24:22;;;;;;;59.28;55.22;;;9.70;99.90;;;;;;6242034;23;20382;-84
2023/09/15 06:26:48;;;;;;;58.13;53.55;;;9.80;99.90;;;;;;6216869;23;20040;-83
2023/09/15 06:29:15;;;;;;;61.28;57.13;;;10.70;99.90;;;;;;6241911;23;20036;-83
2023/09/15 06:31:41;;;;;;;67.63;63.15;;;10.00;99.90;;;;;;6215149;23;20012;-82
2023/09/15 06:34:07;;;;;;;63.42;58.45;;;10.10;99.90;;;;;;6239498;23;20013;-84
2023/09/15 06:36:33;;;;;;;45.20;41.90;;;10.30;99.90;;;;;;6240025;23;20497;-83
2023/09/15 06:39:05;;;;;;;60.33;56.17;;;10.40;99.90;;;;;;6265125;22;20015;-82
2023/09/15 06:41:30;;;;;;;52.60;48.75;;;10.10;99.90;;;;;;6214091;23;20023;-83
2023/09/15 06:43:56;;;;;;;50.78;46.85;;;10.60;99.90;;;;;;6238833;23;20414;-83
2023/09/15 06:46:22;;;;;;;50.58;46.95;;;10.70;99.90;;;;;;6239716;23;20016;-83
2023/09/15 06:48:48;;;;;;;47.92;44.63;;;10.80;99.90;;;;;;6264698;22;20012;-83
2023/09/15 06:51:14;;;;;;;48.10;44.85;;;11.00;99.90;;;;;;6239424;23;20569;-83
2023/09/15 06:53:40;;;;;;;57.35;53.40;;;11.20;99.90;;;;;;6239378;23;20024;-82
2023/09/15 06:56:05;;;;;;;47.67;44.38;;;11.20;99.90;;;;;;6239620;23;20188;-83
2023/09/15 06:58:31;;;;;;;41.58;38.45;;;11.30;99.90;;;;;;6213761;23;20439;-83
2023/09/15 07:00:57;;;;;;;32.45;29.80;;;11.50;99.90;;;;;;6241271;22;20008;-82
2023/09/15 07:03:24;;;;;;;41.10;38.08;;;11.60;99.90;;;;;;6214687;23;20047;-83
2023/09/15 07:05:50;;;;;;;32.63;30.33;;;11.70;99.90;;;;;;6214083;23;20028;-83
2023/09/15 07:08:16;;;;;;;36.67;33.85;;;11.80;99.90;;;;;;6214354;23;20016;-83
2023/09/15 07:10:42;;;;;;;28.25;25.75;;;11.80;99.90;;;;;;6214537;23;20016;-83
2023/09/15 07:13:08;;;;;;;26.85;24.45;;;12.00;99.90;;;;;;6213768;23;20026;-83
2023/09/15 07:15:36;;;;;;;26.08;23.88;;;12.10;99.90;;;;;;6239712;23;20012;-83
2023/09/15 07:18:06;;;;;;;27.27;24.90;;;12.20;99.90;;;;;;6215173;23;20139;-82
2023/09/15 07:20:32;;;;;;;28.52;26.05;;;12.20;99.90;;;;;;6265623;22;20563;-83
2023/09/15 07:23:00;;;;;;;25.55;23.05;;;12.40;99.90;;;;;;6241947;23;20269;-83
2023/09/15 07:25:26;;;;;;;36.03;33.45;;;12.40;99.90;;;;;;6265874;22;20357;-83
2023/09/15 07:27:55;;;;;;;27.45;25.13;;;12.50;99.90;;;;;;6214574;23;20449;-83
2023/09/15 07:30:25;;;;;;;27.23;24.10;;;12.60;99.90;;;;;;6240768;23;20340;-82
2023/09/15 07:32:51;;;;;;;27.98;26.00;;;12.70;99.90;;;;;;6214918;23;20012;-83
2023/09/15 07:35:17;;;;;;;25.35;23.17;;;12.70;99.90;;;;;;6240156;23;20016;-83
2023/09/15 07:37:43;;;;;;;26.42;24.15;;;12.80;99.90;;;;;;6240428;23;20473;-83
2023/09/15 07:40:09;;;;;;;31.65;28.73;;;12.70;99.90;;;;;;6239884;23;20020;-83
2023/09/15 07:42:35;;;;;;;30.55;28.00;;;13.00;99.90;;;;;;6214119;23;20470;-83
2023/09/15 07:45:03;;;;;;;20.05;18.02;;;13.00;99.90;;;;;;6240217;23;20015;-83
2023/09/15 07:47:33;;;;;;;20.67;18.85;;;13.10;99.90;;;;;;6214945;23;20016;-82
2023/09/15 07:50:02;;;;;;;25.65;23.60;;;13.20;99.90;;;;;;6240113;23;20503;-83
2023/09/15 07:52:31;;;;;;;24.77;22.60;;;13.30;99.90;;;;;;6240441;23;20016;-83
2023/09/15 07:54:56;;;;;;;21.23;19.20;;;13.40;99.90;;;;;;6215505;23;20016;-83
2023/09/15 07:57:22;;;;;;;16.52;15.10;;;13.40;99.90;;;;;;6240376;23;20144;-83
2023/09/15 07:59:48;;;;;;;16.60;15.27;;;13.50;99.90;;;;;;6241123;23;20509;-83
2023/09/15 08:02:13;;;;;;;17.38;15.88;;;13.60;99.90;;;;;;6241220;23;20221;-83
2023/09/15 08:04:41;;;;;;;19.13;17.23;;;13.60;99.90;;;;;;6240213;23;20038;-83
2023/09/15 08:07:10;;;;;;;18.73;16.20;;;13.80;99.90;;;;;;6216061;23;20020;-83
2023/09/15 08:09:36;;;;;;;14.68;12.85;;;13.90;99.90;;;;;;6266491;22;20018;-83
2023/09/15 08:12:03;;;;;;;21.42;19.55;;;13.90;99.90;;;;;;6215839;23;20047;-83
2023/09/15 08:14:31;;;;;;;17.48;15.43;;;14.00;99.90;;;;;;6216075;23;20008;-83
2023/09/15 08:16:57;;;;;;;18.15;16.42;;;14.10;99.90;;;;;;6215663;23;20483;-83
2023/09/15 08:19:23;;;;;;;23.95;21.95;;;14.40;99.90;;;;;;6267207;22;20012;-83
2023/09/15 08:22:01;;;;;;;21.42;19.70;;;14.20;99.90;;;;;;6241199;23;20078;-83
2023/09/15 08:24:27;;;;;;;17.13;14.15;;;14.30;99.90;;;;;;6217570;23;20016;-83
2023/09/15 08:26:53;;;;;;;21.25;19.33;;;14.40;99.90;;;;;;6217694;23;20016;-84
2023/09/15 08:29:19;;;;;;;19.20;17.17;;;14.40;99.90;;;;;;6269724;22;20008;-84
2023/09/15 08:31:48;;;;;;;19.48;17.58;;;14.50;99.90;;;;;;6218222;23;20050;-83
2023/09/15 08:34:14;;;;;;;17.92;16.38;;;14.60;99.90;;;;;;6243245;23;20085;-83
2023/09/15 08:36:39;;;;;;;17.63;15.75;;;14.70;99.90;;;;;;6218228;23;20016;-83
2023/09/15 08:39:05;;;;;;;16.10;12.45;;;14.80;99.90;;;;;;6244626;23;20011;-84
2023/09/15 08:41:52;;;;;;;16.23;13.30;;;14.90;99.90;;;;;;6218472;23;20031;-84
2023/09/15 08:44:20;;;;;;;16.02;14.13;;;15.00;99.90;;;;;;6243757;23;20028;-83
2023/09/15 08:46:48;;;;;;;15.65;12.35;;;15.20;99.90;;;;;;6270132;22;20023;-84
2023/09/15 08:49:16;;;;;;;16.63;11.77;;;15.30;99.90;;;;;;6243778;23;20016;-83
2023/09/15 08:51:45;;;;;;;15.52;10.73;;;15.40;99.90;;;;;;6244489;23;20016;-83
2023/09/15 08:54:13;;;;;;;16.45;14.73;;;15.50;99.90;;;;;;6244544;23;20346;-83
2023/09/15 08:56:39;;;;;;;14.65;13.38;;;15.60;99.90;;;;;;6269672;22;20058;-83
2023/09/15 08:59:07;;;;;;;19.73;18.02;;;15.70;99.90;;;;;;6269720;22;20019;-84
2023/09/15 09:01:36;;;;;;;17.30;15.38;;;15.80;99.90;;;;;;6269665;22;20443;-83
2023/09/15 09:04:03;;;;;;;10.95;9.55;;;15.90;99.90;;;;;;6218919;23;20016;-84
2023/09/15 09:06:40;;;;;;;17.58;15.65;;;16.00;99.90;;;;;;6219128;23;20078;-84
2023/09/15 09:09:09;;;;;;;15.05;12.88;;;16.10;99.90;;;;;;6242675;23;20015;-83
2023/09/15 09:11:38;;;;;;;14.25;11.65;;;16.20;99.90;;;;;;6217778;23;20140;-82
2023/09/15 09:14:11;;;;;;;15.43;9.38;;;16.30;99.90;;;;;;6216412;23;20105;-83
2023/09/15 09:16:44;;;;;;;13.05;11.65;;;16.40;99.90;;;;;;6267827;22;20083;-81
2023/09/15 09:19:10;;;;;;;18.15;11.60;;;16.50;99.90;;;;;;6241749;22;20023;-82
2023/09/15 09:21:37;;;;;;;11.73;10.45;;;16.40;99.90;;;;;;6265740;22;20012;-82
2023/09/15 09:24:03;;;;;;;13.35;10.65;;;16.70;99.90;;;;;;6239567;23;20016;-82
2023/09/15 09:26:29;;;;;;;13.73;10.15;;;16.80;99.90;;;;;;6240071;23;20023;-82
2023/09/15 09:28:59;;;;;;;12.45;7.10;;;16.90;99.90;;;;;;6240194;23;20070;-82
2023/09/15 09:31:31;;;;;;;11.38;9.32;;;16.90;99.90;;;;;;6215645;23;20012;-82
2023/09/15 09:34:01;;;;;;;10.75;8.55;;;17.20;99.90;;;;;;6214660;23;20019;-83
2023/09/15 09:36:32;;;;;;;13.65;9.40;;;17.10;99.90;;;;;;6264880;22;20019;-82
2023/09/15 09:39:02;;;;;;;10.88;7.65;;;17.10;99.90;;;;;;6238650;23;20050;-82
2023/09/15 09:41:28;;;;;;;10.82;9.73;;;17.20;99.90;;;;;;6239269;23;20050;-82
2023/09/15 09:43:55;;;;;;;11.73;7.00;;;17.30;99.90;;;;;;6239278;23;20263;-82
2023/09/15 09:46:21;;;;;;;10.13;7.35;;;17.50;99.90;;;;;;6239527;23;20012;-82
2023/09/15 09:48:48;;;;;;;11.23;7.07;;;17.60;99.90;;;;;;6214470;23;20263;-82
2023/09/15 09:51:15;;;;;;;13.68;10.55;;;17.70;99.90;;;;;;6265635;22;20008;-83
2023/09/15 09:53:41;;;;;;;13.70;7.72;;;17.70;99.90;;;;;;6239411;23;20016;-84
2023/09/15 09:56:07;;;;;;;12.35;8.25;;;17.70;99.90;;;;;;6214146;23;20014;-84
2023/09/15 09:58:35;;;;;;;14.50;9.25;;;17.80;99.90;;;;;;6214320;23;20035;-84
2023/09/15 10:01:04;;;;;;;11.25;8.23;;;17.90;99.90;;;;;;6265600;22;20374;-84
2023/09/15 10:03:30;;;;;;;10.20;8.43;;;18.00;99.90;;;;;;6265719;22;20067;-84
2023/09/15 10:05:56;;;;;;;16.27;8.13;;;18.10;99.90;;;;;;6240040;23;20027;-84
2023/09/15 10:08:22;;;;;;;11.85;8.25;;;18.20;99.90;;;;;;6264795;22;20428;-83
2023/09/15 10:10:49;;;;;;;9.32;7.82;;;18.30;99.90;;;;;;6240127;23;20091;-84
2023/09/15 10:13:18;;;;;;;10.80;7.82;;;18.40;99.90;;;;;;6214965;23;20012;-84
2023/09/15 10:15:48;;;;;;;11.80;7.03;;;18.40;99.90;;;;;;6240322;23;20439;-84
2023/09/15 10:18:19;;;;;;;11.20;6.80;;;18.50;99.90;;;;;;6214928;23;20253;-83
2023/09/15 10:20:51;;;;;;;11.52;6.20;;;18.50;99.90;;;;;;6214972;23;20058;-83
2023/09/15 10:23:17;;;;;;;9.25;7.43;;;18.60;99.90;;;;;;6239223;23;20012;-84
2023/09/15 10:25:52;;;;;;;16.88;7.38;;;18.70;99.90;;;;;;6265506;22;20105;-84
2023/09/15 10:28:19;;;;;;;11.73;5.40;;;18.80;99.90;;;;;;6265095;22;20013;-84
2023/09/15 10:30:53;;;;;;;11.98;5.60;;;18.90;99.90;;;;;;6265052;22;20012;-84
2023/09/15 10:33:31;;;;;;;7.95;6.93;;;19.10;99.90;;;;;;6214994;23;20355;-84
2023/09/15 10:36:04;;;;;;;10.38;6.65;;;19.10;99.90;;;;;;6239145;23;20009;-84
2023/09/15 10:38:32;;;;;;;10.65;6.20;;;19.20;99.90;;;;;;6265894;22;20039;-84
2023/09/15 10:41:03;;;;;;;11.70;6.32;;;19.30;99.90;;;;;;6265449;22;20012;-85
2023/09/15 10:43:29;;;;;;;7.70;4.63;;;19.40;99.90;;;;;;6214313;23;20204;-84
2023/09/15 10:46:02;;;;;;;7.57;5.10;;;19.50;99.90;;;;;;6265185;22;20016;-84
2023/09/15 10:48:44;;;;;;;10.95;5.30;;;19.60;99.90;;;;;;6265376;22;20012;-84
2023/09/15 10:51:22;;;;;;;8.13;4.78;;;19.60;99.90;;;;;;6240924;22;20020;-84
2023/09/15 10:53:59;;;;;;;7.35;4.78;;;19.60;99.90;;;;;;6214373;23;20012;-84
2023/09/15 10:56:25;;;;;;;8.35;5.10;;;19.60;99.90;;;;;;6265267;22;20016;-83
2023/09/15 10:58:57;;;;;;;9.13;5.10;;;19.70;99.90;;;;;;6239697;23;20031;-83
2023/09/15 11:01:23;;;;;;;6.00;5.30;;;19.70;99.90;;;;;;6264167;22;20008;-83
2023/09/15 11:03:50;;;;;;;8.63;5.68;;;19.70;99.90;;;;;;6238899;23;20016;-81
2023/09/15 11:06:16;;;;;;;13.07;5.60;;;19.90;99.90;;;;;;6213178;23;20017;-83
2023/09/15 11:08:42;;;;;;;8.38;4.50;;;19.90;99.90;;;;;;6239018;23;20012;-82
2023/09/15 11:11:10;;;;;;;7.20;4.40;;;19.90;99.90;;;;;;6239092;23;20143;-83
2023/09/15 11:13:37;;;;;;;9.07;4.97;;;20.00;99.90;;;;;;6265464;22;20016;-83
2023/09/15 11:16:06;;;;;;;8.02;4.43;;;19.90;99.90;;;;;;6239082;23;20012;-83
2023/09/15 11:18:33;;;;;;;9.57;4.43;;;19.90;99.90;;;;;;6264635;22;20339;-84
2023/09/15 11:21:02;;;;;;;8.18;4.03;;;20.00;99.90;;;;;;6213181;23;20074;-84
2023/09/15 11:23:31;;;;;;;7.28;4.22;;;20.20;99.90;;;;;;6238894;23;20023;-83
2023/09/15 11:26:05;;;;;;;9.23;4.03;;;20.20;99.90;;;;;;6264333;22;20065;-83
2023/09/15 11:28:31;;;;;;;9.63;4.38;;;20.20;99.90;;;;;;6264376;22;20020;-84
2023/09/15 11:31:02;;;;;;;8.40;3.97;;;20.30;99.90;;;;;;6264823;22;20016;-84
2023/09/15 11:33:29;;;;;;;8.10;3.85;;;20.30;99.90;;;;;;6266293;22;20051;-84
2023/09/15 11:35:56;;;;;;;10.77;4.40;;;20.40;99.90;;;;;;6221337;23;20027;-84
2023/09/15 11:38:23;;;;;;;6.03;3.88;;;20.40;99.90;;;;;;6221818;23;20016;-84
2023/09/15 11:40:52;;;;;;;9.02;3.75;;;20.50;99.90;;;;;;6218736;23;20020;-84
2023/09/15 11:43:22;;;;;;;6.38;4.82;;;20.50;99.90;;;;;;6243216;23;20020;-84
2023/09/15 11:45:50;;;;;;;7.45;4.03;;;20.60;99.90;;;;;;6217976;23;20386;-84
2023/09/15 11:48:16;;;;;;;7.20;5.55;;;20.60;99.90;;;;;;6241997;23;20012;-84
2023/09/15 11:50:43;;;;;;;7.25;3.80;;;20.60;99.90;;;;;;6240932;23;20012;-83
2023/09/15 11:53:12;;;;;;;8.80;5.07;;;20.60;99.90;;;;;;6242198;23;20012;-82
2023/09/15 11:55:40;;;;;;;8.80;5.15;;;20.60;99.90;;;;;;6266950;22;20470;-83
2023/09/15 11:58:06;;;;;;;11.57;6.93;;;20.70;99.90;;;;;;6242227;23;20509;-84
2023/09/15 12:00:33;;;;;;;7.60;4.65;;;20.80;99.90;;;;;;6270514;22;20178;-83
2023/09/15 12:03:03;;;;;;;9.57;4.85;;;21.00;99.90;;;;;;6217052;23;20008;-83
2023/09/15 12:05:31;;;;;;;7.75;5.35;;;20.90;99.90;;;;;;6242169;23;20035;-82
2023/09/15 12:08:02;;;;;;;13.02;7.43;;;21.00;99.90;;;;;;6217685;23;20039;-82
2023/09/15 12:10:51;;;;;;;10.15;6.32;;;20.80;99.90;;;;;;6267610;22;20439;-83
2023/09/15 12:13:26;;;;;;;8.77;6.90;;;21.00;99.90;;;;;;6241637;23;20016;-82
2023/09/15 12:15:52;;;;;;;7.05;5.38;;;21.00;99.90;;;;;;6241592;23;20106;-82
2023/09/15 12:18:24;;;;;;;8.45;5.70;;;21.00;99.90;;;;;;6240851;23;20087;-82
2023/09/15 12:20:49;;;;;;;7.65;4.75;;;20.80;99.90;;;;;;6242419;23;20012;-82
2023/09/15 12:23:15;;;;;;;8.75;5.15;;;20.70;99.90;;;;;;6242304;23;20509;-82
2023/09/15 12:25:41;;;;;;;11.20;6.47;;;20.60;99.90;;;;;;6216842;23;20666;-82
2023/09/15 12:28:08;;;;;;;8.38;5.32;;;20.70;99.90;;;;;;6242385;23;20058;-82
2023/09/15 12:30:43;;;;;;;10.88;5.30;;;20.70;99.90;;;;;;6242441;23;20351;-82
2023/09/15 12:33:08;;;;;;;8.93;7.05;;;20.80;99.90;;;;;;6242260;23;20663;-82
2023/09/15 12:35:40;;;;;;;8.70;6.70;;;21.50;99.90;;;;;;6241666;23;20016;-82
2023/09/15 12:38:06;;;;;;;7.63;6.05;;;22.00;99.90;;;;;;6242640;23;20040;-83